sensor_id;sensor_type;location;lat;lon;timestamp;P1;durP1;ratioP1;P2;durP2;ratioP2
15383;SDS011;7790;53.022;12.968;2024-02-15T00:02:22;0.60;;;0.60;;
15383;SDS011;7790;53.022;12.968;2024-02-15T00:06:23;0.57;;;0.50;;
15383;SDS011;7790;53.022;12.968;2024-02-15T00:10:24;0.40;;;0.37;;
15383;SDS011;7790;53.022;12.968;2024-02-15T00:14:28;0.30;;;0.30;;
15383;SDS011;7790;53.022;12.968;2024-02-15T00:18:31;0.60;;;0.60;;
15383;SDS011;7790;53.022;12.968;2024-02-15T00:22:32;1.60;;;0.40;;
15383;SDS011;7790;53.022;12.968;2024-02-15T00:26:33;0.57;;;0.57;;
15383;SDS011;7790;53.022;12.968;2024-02-15T00:30:34;0.80;;;0.50;;
15383;SDS011;7790;53.022;12.968;2024-02-15T00:34:35;0.40;;;0.40;;
15383;SDS011;7790;53.022;12.968;2024-02-15T00:38:38;0.70;;;0.70;;
15383;SDS011;7790;53.022;12.968;2024-02-15T00:42:39;1.53;;;0.47;;
15383;SDS011;7790;53.022;12.968;2024-02-15T00:46:40;0.30;;;0.30;;
15383;SDS011;7790;53.022;12.968;2024-02-15T00:50:41;0.60;;;0.50;;
15383;SDS011;7790;53.022;12.968;2024-02-15T00:54:42;0.50;;;0.50;;
15383;SDS011;7790;53.022;12.968;2024-02-15T00:58:43;0.70;;;0.70;;
15383;SDS011;7790;53.022;12.968;2024-02-15T01:02:44;1.30;;;0.53;;
15383;SDS011;7790;53.022;12.968;2024-02-15T01:06:46;0.50;;;0.50;;
15383;SDS011;7790;53.022;12.968;2024-02-15T01:10:47;0.60;;;0.60;;
15383;SDS011;7790;53.022;12.968;2024-02-15T01:14:48;2.00;;;0.60;;
15383;SDS011;7790;53.022;12.968;2024-02-15T01:18:49;0.67;;;0.47;;
15383;SDS011;7790;53.022;12.968;2024-02-15T01:22:51;0.80;;;0.80;;
15383;SDS011;7790;53.022;12.968;2024-02-15T01:26:52;0.93;;;0.63;;
15383;SDS011;7790;53.022;12.968;2024-02-15T01:30:53;0.50;;;0.50;;
15383;SDS011;7790;53.022;12.968;2024-02-15T01:34:54;2.97;;;0.60;;
15383;SDS011;7790;53.022;12.968;2024-02-15T01:38:55;1.27;;;0.40;;
15383;SDS011;7790;53.022;12.968;2024-02-15T01:42:56;0.80;;;0.60;;
15383;SDS011;7790;53.022;12.968;2024-02-15T01:46:59;0.57;;;0.57;;
15383;SDS011;7790;53.022;12.968;2024-02-15T01:51:00;0.83;;;0.60;;
15383;SDS011;7790;53.022;12.968;2024-02-15T01:55:02;1.13;;;0.50;;
15383;SDS011;7790;53.022;12.968;2024-02-15T01:59:08;0.40;;;0.40;;
15383;SDS011;7790;53.022;12.968;2024-02-15T02:03:09;0.77;;;0.70;;
15383;SDS011;7790;53.022;12.968;2024-02-15T02:07:12;2.13;;;0.70;;
15383;SDS011;7790;53.022;12.968;2024-02-15T02:11:14;0.50;;;0.40;;
15383;SDS011;7790;53.022;12.968;2024-02-15T02:15:15;0.70;;;0.70;;
15383;SDS011;7790;53.022;12.968;2024-02-15T02:19:16;0.77;;;0.60;;
15383;SDS011;7790;53.022;12.968;2024-02-15T02:23:18;0.90;;;0.67;;
15383;SDS011;7790;53.022;12.968;2024-02-15T02:27:26;0.57;;;0.50;;
15383;SDS011;7790;53.022;12.968;2024-02-15T02:31:34;0.63;;;0.40;;
15383;SDS011;7790;53.022;12.968;2024-02-15T02:35:35;0.40;;;0.40;;
15383;SDS011;7790;53.022;12.968;2024-02-15T02:39:36;1.00;;;0.63;;
15383;SDS011;7790;53.022;12.968;2024-02-15T02:43:39;0.50;;;0.50;;
15383;SDS011;7790;53.022;12.968;2024-02-15T02:47:43;0.50;;;0.50;;
15383;SDS011;7790;53.022;12.968;2024-02-15T02:51:43;0.60;;;0.60;;
15383;SDS011;7790;53.022;12.968;2024-02-15T02:55:45;0.90;;;0.60;;
15383;SDS011;7790;53.022;12.968;2024-02-15T02:59:45;0.60;;;0.60;;
15383;SDS011;7790;53.022;12.968;2024-02-15T03:03:47;0.83;;;0.67;;
15383;SDS011;7790;53.022;12.968;2024-02-15T03:07:48;0.50;;;0.40;;
15383;SDS011;7790;53.022;12.968;2024-02-15T03:11:49;0.63;;;0.60;;
15383;SDS011;7790;53.022;12.968;2024-02-15T03:15:50;0.73;;;0.40;;
15383;SDS011;7790;53.022;12.968;2024-02-15T03:19:51;0.50;;;0.50;;
15383;SDS011;7790;53.022;12.968;2024-02-15T03:23:52;0.60;;;0.60;;
15383;SDS011;7790;53.022;12.968;2024-02-15T03:27:53;0.53;;;0.43;;
15383;SDS011;7790;53.022;12.968;2024-02-15T03:31:55;0.40;;;0.40;;
15383;SDS011;7790;53.022;12.968;2024-02-15T03:35:56;0.40;;;0.40;;
15383;SDS011;7790;53.022;12.968;2024-02-15T03:39:59;0.30;;;0.30;;
15383;SDS011;7790;53.022;12.968;2024-02-15T03:44:00;0.73;;;0.50;;
15383;SDS011;7790;53.022;12.968;2024-02-15T03:48:01;0.40;;;0.40;;
15383;SDS011;7790;53.022;12.968;2024-02-15T03:52:05;0.40;;;0.40;;
15383;SDS011;7790;53.022;12.968;2024-02-15T03:56:06;0.37;;;0.37;;
15383;SDS011;7790;53.022;12.968;2024-02-15T04:00:09;0.43;;;0.40;;
15383;SDS011;7790;53.022;12.968;2024-02-15T04:04:20;0.50;;;0.50;;
15383;SDS011;7790;53.022;12.968;2024-02-15T04:08:21;0.50;;;0.50;;
15383;SDS011;7790;53.022;12.968;2024-02-15T04:12:22;0.30;;;0.30;;
15383;SDS011;7790;53.022;12.968;2024-02-15T04:16:23;0.70;;;0.70;;
15383;SDS011;7790;53.022;12.968;2024-02-15T04:20:25;0.47;;;0.47;;
15383;SDS011;7790;53.022;12.968;2024-02-15T04:24:26;0.40;;;0.40;;
15383;SDS011;7790;53.022;12.968;2024-02-15T04:28:27;1.13;;;0.50;;
15383;SDS011;7790;53.022;12.968;2024-02-15T04:32:28;0.30;;;0.30;;
15383;SDS011;7790;53.022;12.968;2024-02-15T04:36:33;0.50;;;0.50;;
15383;SDS011;7790;53.022;12.968;2024-02-15T04:40:34;0.33;;;0.33;;
15383;SDS011;7790;53.022;12.968;2024-02-15T04:44:35;0.30;;;0.30;;
15383;SDS011;7790;53.022;12.968;2024-02-15T04:48:37;0.30;;;0.30;;
15383;SDS011;7790;53.022;12.968;2024-02-15T04:52:39;0.33;;;0.33;;
15383;SDS011;7790;53.022;12.968;2024-02-15T04:56:40;1.10;;;0.60;;
15383;SDS011;7790;53.022;12.968;2024-02-15T05:00:41;0.90;;;0.90;;
15383;SDS011;7790;53.022;12.968;2024-02-15T05:04:42;0.73;;;0.67;;
15383;SDS011;7790;53.022;12.968;2024-02-15T05:08:43;0.57;;;0.57;;
15383;SDS011;7790;53.022;12.968;2024-02-15T05:12:44;1.80;;;1.17;;
15383;SDS011;7790;53.022;12.968;2024-02-15T05:16:45;4.80;;;1.20;;
15383;SDS011;7790;53.022;12.968;2024-02-15T05:20:48;3.20;;;1.37;;
15383;SDS011;7790;53.022;12.968;2024-02-15T05:24:48;4.50;;;1.10;;
15383;SDS011;7790;53.022;12.968;2024-02-15T05:28:50;1.83;;;0.93;;
15383;SDS011;7790;53.022;12.968;2024-02-15T05:32:51;2.07;;;1.10;;
15383;SDS011;7790;53.022;12.968;2024-02-15T05:36:53;2.20;;;1.07;;
15383;SDS011;7790;53.022;12.968;2024-02-15T05:40:54;1.53;;;0.90;;
15383;SDS011;7790;53.022;12.968;2024-02-15T05:44:55;1.23;;;0.90;;
15383;SDS011;7790;53.022;12.968;2024-02-15T05:49:14;0.97;;;0.87;;
15383;SDS011;7790;53.022;12.968;2024-02-15T05:53:17;4.03;;;0.90;;
15383;SDS011;7790;53.022;12.968;2024-02-15T05:57:18;1.37;;;0.70;;
15383;SDS011;7790;53.022;12.968;2024-02-15T06:01:19;0.63;;;0.63;;
15383;SDS011;7790;53.022;12.968;2024-02-15T06:05:20;2.63;;;1.03;;
15383;SDS011;7790;53.022;12.968;2024-02-15T06:09:20;0.93;;;0.90;;
15383;SDS011;7790;53.022;12.968;2024-02-15T06:13:24;0.90;;;0.90;;
15383;SDS011;7790;53.022;12.968;2024-02-15T06:17:26;1.57;;;0.83;;
15383;SDS011;7790;53.022;12.968;2024-02-15T06:21:27;2.47;;;1.00;;
15383;SDS011;7790;53.022;12.968;2024-02-15T06:25:28;0.70;;;0.70;;
15383;SDS011;7790;53.022;12.968;2024-02-15T06:29:29;1.07;;;0.60;;
15383;SDS011;7790;53.022;12.968;2024-02-15T06:33:48;0.97;;;0.97;;
15383;SDS011;7790;53.022;12.968;2024-02-15T06:38:08;1.77;;;0.73;;
15383;SDS011;7790;53.022;12.968;2024-02-15T06:42:27;1.13;;;0.70;;
15383;SDS011;7790;53.022;12.968;2024-02-15T06:46:31;0.70;;;0.70;;
15383;SDS011;7790;53.022;12.968;2024-02-15T06:50:32;2.03;;;0.90;;
15383;SDS011;7790;53.022;12.968;2024-02-15T06:54:34;0.80;;;0.80;;
15383;SDS011;7790;53.022;12.968;2024-02-15T06:58:36;0.77;;;0.60;;
15383;SDS011;7790;53.022;12.968;2024-02-15T07:02:37;0.50;;;0.50;;
15383;SDS011;7790;53.022;12.968;2024-02-15T07:06:38;0.60;;;0.60;;
15383;SDS011;7790;53.022;12.968;2024-02-15T07:10:39;0.70;;;0.70;;
15383;SDS011;7790;53.022;12.968;2024-02-15T07:14:40;1.53;;;0.80;;
15383;SDS011;7790;53.022;12.968;2024-02-15T07:18:41;1.27;;;0.90;;
15383;SDS011;7790;53.022;12.968;2024-02-15T07:22:42;0.70;;;0.70;;
15383;SDS011;7790;53.022;12.968;2024-02-15T07:26:45;1.63;;;0.70;;
15383;SDS011;7790;53.022;12.968;2024-02-15T07:30:46;1.07;;;0.73;;
15383;SDS011;7790;53.022;12.968;2024-02-15T07:34:51;0.80;;;0.73;;
15383;SDS011;7790;53.022;12.968;2024-02-15T07:38:52;1.80;;;0.90;;
15383;SDS011;7790;53.022;12.968;2024-02-15T07:42:57;2.77;;;0.77;;
15383;SDS011;7790;53.022;12.968;2024-02-15T07:47:00;1.20;;;0.60;;
15383;SDS011;7790;53.022;12.968;2024-02-15T07:51:01;0.97;;;0.73;;
15383;SDS011;7790;53.022;12.968;2024-02-15T07:55:02;0.67;;;0.67;;
15383;SDS011;7790;53.022;12.968;2024-02-15T07:59:08;3.97;;;1.10;;
15383;SDS011;7790;53.022;12.968;2024-02-15T08:03:09;0.87;;;0.70;;
15383;SDS011;7790;53.022;12.968;2024-02-15T08:07:10;2.00;;;0.80;;
15383;SDS011;7790;53.022;12.968;2024-02-15T08:11:11;3.20;;;0.67;;
15383;SDS011;7790;53.022;12.968;2024-02-15T08:15:15;2.83;;;0.80;;
15383;SDS011;7790;53.022;12.968;2024-02-15T08:19:16;1.33;;;0.63;;
15383;SDS011;7790;53.022;12.968;2024-02-15T08:23:17;2.13;;;0.90;;
15383;SDS011;7790;53.022;12.968;2024-02-15T08:27:18;2.70;;;0.83;;
15383;SDS011;7790;53.022;12.968;2024-02-15T08:31:20;1.20;;;0.57;;
15383;SDS011;7790;53.022;12.968;2024-02-15T08:35:21;0.67;;;0.67;;
15383;SDS011;7790;53.022;12.968;2024-02-15T08:39:22;0.60;;;0.60;;
15383;SDS011;7790;53.022;12.968;2024-02-15T08:43:23;0.67;;;0.60;;
15383;SDS011;7790;53.022;12.968;2024-02-15T08:47:24;1.13;;;0.50;;
15383;SDS011;7790;53.022;12.968;2024-02-15T08:51:25;0.50;;;0.50;;
15383;SDS011;7790;53.022;12.968;2024-02-15T08:55:25;0.90;;;0.70;;
15383;SDS011;7790;53.022;12.968;2024-02-15T08:59:27;1.47;;;0.80;;
15383;SDS011;7790;53.022;12.968;2024-02-15T09:03:28;0.50;;;0.43;;
15383;SDS011;7790;53.022;12.968;2024-02-15T09:07:29;1.00;;;0.60;;
15383;SDS011;7790;53.022;12.968;2024-02-15T09:11:30;1.07;;;0.57;;
15383;SDS011;7790;53.022;12.968;2024-02-15T09:15:31;4.70;;;0.70;;
15383;SDS011;7790;53.022;12.968;2024-02-15T09:19:33;0.97;;;0.70;;
15383;SDS011;7790;53.022;12.968;2024-02-15T09:23:34;4.13;;;0.80;;
15383;SDS011;7790;53.022;12.968;2024-02-15T09:27:35;2.93;;;0.67;;
15383;SDS011;7790;53.022;12.968;2024-02-15T09:31:37;2.50;;;0.93;;
15383;SDS011;7790;53.022;12.968;2024-02-15T09:35:40;0.77;;;0.57;;
15383;SDS011;7790;53.022;12.968;2024-02-15T09:39:41;3.17;;;0.80;;
15383;SDS011;7790;53.022;12.968;2024-02-15T09:43:42;2.00;;;0.57;;
15383;SDS011;7790;53.022;12.968;2024-02-15T09:47:44;2.07;;;0.80;;
15383;SDS011;7790;53.022;12.968;2024-02-15T09:51:45;0.50;;;0.50;;
15383;SDS011;7790;53.022;12.968;2024-02-15T09:55:47;0.60;;;0.50;;
15383;SDS011;7790;53.022;12.968;2024-02-15T09:59:49;1.07;;;0.60;;
15383;SDS011;7790;53.022;12.968;2024-02-15T10:03:50;0.70;;;0.60;;
15383;SDS011;7790;53.022;12.968;2024-02-15T10:07:52;0.70;;;0.60;;
15383;SDS011;7790;53.022;12.968;2024-02-15T10:11:59;0.50;;;0.40;;
15383;SDS011;7790;53.022;12.968;2024-02-15T10:16:13;1.30;;;0.33;;
15383;SDS011;7790;53.022;12.968;2024-02-15T10:20:18;0.70;;;0.60;;
15383;SDS011;7790;53.022;12.968;2024-02-15T10:24:19;0.80;;;0.60;;
15383;SDS011;7790;53.022;12.968;2024-02-15T10:28:20;0.50;;;0.50;;
15383;SDS011;7790;53.022;12.968;2024-02-15T10:32:23;0.60;;;0.50;;
15383;SDS011;7790;53.022;12.968;2024-02-15T10:36:35;1.97;;;0.53;;
15383;SDS011;7790;53.022;12.968;2024-02-15T10:40:36;0.43;;;0.43;;
15383;SDS011;7790;53.022;12.968;2024-02-15T10:44:38;0.43;;;0.43;;
15383;SDS011;7790;53.022;12.968;2024-02-15T10:48:40;0.57;;;0.40;;
15383;SDS011;7790;53.022;12.968;2024-02-15T10:52:54;0.33;;;0.33;;
15383;SDS011;7790;53.022;12.968;2024-02-15T10:56:56;0.50;;;0.50;;
15383;SDS011;7790;53.022;12.968;2024-02-15T11:01:05;0.57;;;0.50;;
15383;SDS011;7790;53.022;12.968;2024-02-15T11:05:10;0.53;;;0.53;;
15383;SDS011;7790;53.022;12.968;2024-02-15T11:09:14;1.00;;;0.47;;
15383;SDS011;7790;53.022;12.968;2024-02-15T11:13:15;1.07;;;0.40;;
15383;SDS011;7790;53.022;12.968;2024-02-15T11:21:55;0.97;;;0.50;;
15383;SDS011;7790;53.022;12.968;2024-02-15T11:25:57;3.80;;;0.80;;
15383;SDS011;7790;53.022;12.968;2024-02-15T11:30:01;0.50;;;0.50;;
15383;SDS011;7790;53.022;12.968;2024-02-15T11:38:44;0.50;;;0.40;;
15383;SDS011;7790;53.022;12.968;2024-02-15T11:42:45;0.30;;;0.30;;
15383;SDS011;7790;53.022;12.968;2024-02-15T11:46:46;1.73;;;0.40;;
15383;SDS011;7790;53.022;12.968;2024-02-15T11:50:55;0.67;;;0.40;;
15383;SDS011;7790;53.022;12.968;2024-02-15T11:55:06;0.30;;;0.30;;
15383;SDS011;7790;53.022;12.968;2024-02-15T11:59:10;1.43;;;0.30;;
15383;SDS011;7790;53.022;12.968;2024-02-15T12:03:19;0.90;;;0.30;;
15383;SDS011;7790;53.022;12.968;2024-02-15T12:07:38;0.50;;;0.30;;
15383;SDS011;7790;53.022;12.968;2024-02-15T12:12:17;0.50;;;0.40;;
15383;SDS011;7790;53.022;12.968;2024-02-15T12:16:37;1.10;;;0.57;;
15383;SDS011;7790;53.022;12.968;2024-02-15T12:20:56;1.03;;;0.60;;
15383;SDS011;7790;53.022;12.968;2024-02-15T12:24:57;0.97;;;0.73;;
15383;SDS011;7790;53.022;12.968;2024-02-15T12:29:16;4.40;;;0.60;;
15383;SDS011;7790;53.022;12.968;2024-02-15T12:33:17;5.30;;;0.63;;
15383;SDS011;7790;53.022;12.968;2024-02-15T12:37:20;0.20;;;0.20;;
15383;SDS011;7790;53.022;12.968;2024-02-15T12:41:21;0.67;;;0.30;;
15383;SDS011;7790;53.022;12.968;2024-02-15T12:45:24;0.40;;;0.40;;
15383;SDS011;7790;53.022;12.968;2024-02-15T12:49:28;1.80;;;0.30;;
15383;SDS011;7790;53.022;12.968;2024-02-15T12:53:30;1.23;;;0.40;;
15383;SDS011;7790;53.022;12.968;2024-02-15T12:57:31;1.80;;;0.50;;
15383;SDS011;7790;53.022;12.968;2024-02-15T13:01:32;0.20;;;0.20;;
15383;SDS011;7790;53.022;12.968;2024-02-15T13:05:34;0.47;;;0.47;;
15383;SDS011;7790;53.022;12.968;2024-02-15T13:09:36;1.20;;;0.40;;
15383;SDS011;7790;53.022;12.968;2024-02-15T13:13:37;0.83;;;0.43;;
15383;SDS011;7790;53.022;12.968;2024-02-15T13:17:38;0.40;;;0.40;;
15383;SDS011;7790;53.022;12.968;2024-02-15T13:21:39;0.50;;;0.50;;
15383;SDS011;7790;53.022;12.968;2024-02-15T13:25:42;0.30;;;0.30;;
15383;SDS011;7790;53.022;12.968;2024-02-15T13:29:43;1.67;;;0.40;;
15383;SDS011;7790;53.022;12.968;2024-02-15T13:33:44;0.80;;;0.50;;
15383;SDS011;7790;53.022;12.968;2024-02-15T13:37:47;0.50;;;0.50;;
15383;SDS011;7790;53.022;12.968;2024-02-15T13:41:54;4.03;;;0.50;;
15383;SDS011;7790;53.022;12.968;2024-02-15T13:45:56;0.80;;;0.57;;
15383;SDS011;7790;53.022;12.968;2024-02-15T13:49:57;0.57;;;0.40;;
15383;SDS011;7790;53.022;12.968;2024-02-15T13:53:58;0.33;;;0.33;;
15383;SDS011;7790;53.022;12.968;2024-02-15T13:57:59;0.87;;;0.37;;
15383;SDS011;7790;53.022;12.968;2024-02-15T14:02:00;0.33;;;0.30;;
15383;SDS011;7790;53.022;12.968;2024-02-15T14:06:01;1.00;;;0.43;;
15383;SDS011;7790;53.022;12.968;2024-02-15T14:10:03;0.37;;;0.37;;
15383;SDS011;7790;53.022;12.968;2024-02-15T14:14:08;0.30;;;0.30;;
15383;SDS011;7790;53.022;12.968;2024-02-15T14:18:09;1.80;;;0.60;;
15383;SDS011;7790;53.022;12.968;2024-02-15T14:22:13;0.97;;;0.50;;
15383;SDS011;7790;53.022;12.968;2024-02-15T14:26:16;0.30;;;0.30;;
15383;SDS011;7790;53.022;12.968;2024-02-15T14:30:17;0.37;;;0.37;;
15383;SDS011;7790;53.022;12.968;2024-02-15T14:34:36;0.70;;;0.30;;
15383;SDS011;7790;53.022;12.968;2024-02-15T14:38:37;0.53;;;0.30;;
15383;SDS011;7790;53.022;12.968;2024-02-15T14:42:38;1.50;;;0.40;;
15383;SDS011;7790;53.022;12.968;2024-02-15T14:46:41;0.20;;;0.20;;
15383;SDS011;7790;53.022;12.968;2024-02-15T14:50:42;1.20;;;0.40;;
15383;SDS011;7790;53.022;12.968;2024-02-15T14:54:44;0.40;;;0.33;;
15383;SDS011;7790;53.022;12.968;2024-02-15T14:58:45;0.67;;;0.33;;
15383;SDS011;7790;53.022;12.968;2024-02-15T15:02:46;0.40;;;0.40;;
15383;SDS011;7790;53.022;12.968;2024-02-15T15:06:47;0.47;;;0.30;;
15383;SDS011;7790;53.022;12.968;2024-02-15T15:11:14;0.63;;;0.30;;
15383;SDS011;7790;53.022;12.968;2024-02-15T15:15:33;0.47;;;0.30;;
15383;SDS011;7790;53.022;12.968;2024-02-15T15:19:34;0.27;;;0.20;;
15383;SDS011;7790;53.022;12.968;2024-02-15T15:23:37;0.50;;;0.33;;
15383;SDS011;7790;53.022;12.968;2024-02-15T15:27:39;0.30;;;0.30;;
15383;SDS011;7790;53.022;12.968;2024-02-15T15:31:40;0.40;;;0.40;;
15383;SDS011;7790;53.022;12.968;2024-02-15T15:35:41;2.10;;;0.40;;
15383;SDS011;7790;53.022;12.968;2024-02-15T15:39:42;0.40;;;0.30;;
15383;SDS011;7790;53.022;12.968;2024-02-15T15:43:43;0.70;;;0.40;;
15383;SDS011;7790;53.022;12.968;2024-02-15T15:47:44;1.33;;;0.30;;
15383;SDS011;7790;53.022;12.968;2024-02-15T15:51:45;0.37;;;0.37;;
15383;SDS011;7790;53.022;12.968;2024-02-15T15:55:47;0.97;;;0.30;;
15383;SDS011;7790;53.022;12.968;2024-02-15T15:59:48;1.80;;;0.47;;
15383;SDS011;7790;53.022;12.968;2024-02-15T16:03:50;0.37;;;0.33;;
15383;SDS011;7790;53.022;12.968;2024-02-15T16:07:52;3.47;;;0.60;;
15383;SDS011;7790;53.022;12.968;2024-02-15T16:11:53;5.67;;;0.60;;
15383;SDS011;7790;53.022;12.968;2024-02-15T16:15:54;2.13;;;0.43;;
15383;SDS011;7790;53.022;12.968;2024-02-15T16:19:56;2.73;;;0.30;;
15383;SDS011;7790;53.022;12.968;2024-02-15T16:23:57;4.30;;;0.60;;
15383;SDS011;7790;53.022;12.968;2024-02-15T16:27:58;2.03;;;0.43;;
15383;SDS011;7790;53.022;12.968;2024-02-15T16:32:00;1.70;;;0.40;;
15383;SDS011;7790;53.022;12.968;2024-02-15T16:36:02;0.67;;;0.40;;
15383;SDS011;7790;53.022;12.968;2024-02-15T16:40:03;2.63;;;0.83;;
15383;SDS011;7790;53.022;12.968;2024-02-15T16:44:08;0.67;;;0.30;;
15383;SDS011;7790;53.022;12.968;2024-02-15T16:48:09;0.63;;;0.40;;
15383;SDS011;7790;53.022;12.968;2024-02-15T16:52:11;0.30;;;0.30;;
15383;SDS011;7790;53.022;12.968;2024-02-15T16:56:16;0.60;;;0.50;;
15383;SDS011;7790;53.022;12.968;2024-02-15T17:00:23;0.30;;;0.30;;
15383;SDS011;7790;53.022;12.968;2024-02-15T17:04:24;2.23;;;0.60;;
15383;SDS011;7790;53.022;12.968;2024-02-15T17:08:26;1.37;;;0.60;;
15383;SDS011;7790;53.022;12.968;2024-02-15T17:12:27;1.53;;;0.80;;
15383;SDS011;7790;53.022;12.968;2024-02-15T17:16:28;0.93;;;0.80;;
15383;SDS011;7790;53.022;12.968;2024-02-15T17:20:29;3.27;;;0.70;;
15383;SDS011;7790;53.022;12.968;2024-02-15T17:24:30;1.90;;;0.80;;
15383;SDS011;7790;53.022;12.968;2024-02-15T17:28:32;0.77;;;0.60;;
15383;SDS011;7790;53.022;12.968;2024-02-15T17:32:33;0.60;;;0.47;;
15383;SDS011;7790;53.022;12.968;2024-02-15T17:36:34;3.80;;;0.90;;
15383;SDS011;7790;53.022;12.968;2024-02-15T17:40:35;1.33;;;0.63;;
15383;SDS011;7790;53.022;12.968;2024-02-15T17:44:36;2.03;;;0.73;;
15383;SDS011;7790;53.022;12.968;2024-02-15T17:48:38;1.13;;;0.70;;
15383;SDS011;7790;53.022;12.968;2024-02-15T17:52:39;3.03;;;1.27;;
15383;SDS011;7790;53.022;12.968;2024-02-15T17:56:41;0.80;;;0.73;;
15383;SDS011;7790;53.022;12.968;2024-02-15T18:00:42;1.30;;;0.90;;
15383;SDS011;7790;53.022;12.968;2024-02-15T18:04:43;3.20;;;1.40;;
15383;SDS011;7790;53.022;12.968;2024-02-15T18:08:45;1.87;;;1.13;;
15383;SDS011;7790;53.022;12.968;2024-02-15T18:12:46;3.20;;;1.17;;
15383;SDS011;7790;53.022;12.968;2024-02-15T18:16:47;2.80;;;0.90;;
15383;SDS011;7790;53.022;12.968;2024-02-15T18:20:50;1.87;;;1.07;;
15383;SDS011;7790;53.022;12.968;2024-02-15T18:24:51;1.27;;;1.17;;
15383;SDS011;7790;53.022;12.968;2024-02-15T18:28:52;1.03;;;0.90;;
15383;SDS011;7790;53.022;12.968;2024-02-15T18:32:53;3.43;;;1.17;;
15383;SDS011;7790;53.022;12.968;2024-02-15T18:36:53;1.37;;;0.63;;
15383;SDS011;7790;53.022;12.968;2024-02-15T18:40:54;5.53;;;1.33;;
15383;SDS011;7790;53.022;12.968;2024-02-15T18:44:57;1.53;;;0.80;;
15383;SDS011;7790;53.022;12.968;2024-02-15T18:48:59;1.33;;;0.83;;
15383;SDS011;7790;53.022;12.968;2024-02-15T18:53:00;4.13;;;0.83;;
15383;SDS011;7790;53.022;12.968;2024-02-15T18:57:02;2.60;;;0.70;;
15383;SDS011;7790;53.022;12.968;2024-02-15T19:01:03;1.80;;;0.63;;
15383;SDS011;7790;53.022;12.968;2024-02-15T19:05:04;3.53;;;0.90;;
15383;SDS011;7790;53.022;12.968;2024-02-15T19:09:15;1.70;;;0.90;;
15383;SDS011;7790;53.022;12.968;2024-02-15T19:13:18;1.43;;;0.80;;
15383;SDS011;7790;53.022;12.968;2024-02-15T19:17:20;2.10;;;1.00;;
15383;SDS011;7790;53.022;12.968;2024-02-15T19:21:21;3.10;;;0.97;;
15383;SDS011;7790;53.022;12.968;2024-02-15T19:25:22;0.67;;;0.67;;
15383;SDS011;7790;53.022;12.968;2024-02-15T19:29:23;1.33;;;0.80;;
15383;SDS011;7790;53.022;12.968;2024-02-15T19:33:23;1.47;;;0.90;;
15383;SDS011;7790;53.022;12.968;2024-02-15T19:37:25;2.37;;;0.90;;
15383;SDS011;7790;53.022;12.968;2024-02-15T19:41:30;1.50;;;0.90;;
15383;SDS011;7790;53.022;12.968;2024-02-15T19:45:31;0.93;;;0.73;;
15383;SDS011;7790;53.022;12.968;2024-02-15T19:49:37;0.77;;;0.77;;
15383;SDS011;7790;53.022;12.968;2024-02-15T19:53:38;1.80;;;0.73;;
15383;SDS011;7790;53.022;12.968;2024-02-15T19:57:40;0.67;;;0.67;;
15383;SDS011;7790;53.022;12.968;2024-02-15T20:01:41;1.57;;;0.40;;
15383;SDS011;7790;53.022;12.968;2024-02-15T20:05:44;0.70;;;0.70;;
15383;SDS011;7790;53.022;12.968;2024-02-15T20:09:45;1.40;;;0.73;;
15383;SDS011;7790;53.022;12.968;2024-02-15T20:13:47;0.73;;;0.73;;
15383;SDS011;7790;53.022;12.968;2024-02-15T20:17:48;0.70;;;0.70;;
15383;SDS011;7790;53.022;12.968;2024-02-15T20:21:48;0.60;;;0.60;;
15383;SDS011;7790;53.022;12.968;2024-02-15T20:25:51;2.73;;;0.90;;
15383;SDS011;7790;53.022;12.968;2024-02-15T20:29:52;0.87;;;0.80;;
15383;SDS011;7790;53.022;12.968;2024-02-15T20:33:53;0.70;;;0.70;;
15383;SDS011;7790;53.022;12.968;2024-02-15T20:37:54;0.80;;;0.80;;
15383;SDS011;7790;53.022;12.968;2024-02-15T20:41:55;0.73;;;0.50;;
15383;SDS011;7790;53.022;12.968;2024-02-15T20:45:56;0.80;;;0.60;;
15383;SDS011;7790;53.022;12.968;2024-02-15T20:49:57;2.20;;;0.50;;
15383;SDS011;7790;53.022;12.968;2024-02-15T20:53:58;1.13;;;0.70;;
15383;SDS011;7790;53.022;12.968;2024-02-15T20:57:59;0.70;;;0.70;;
15383;SDS011;7790;53.022;12.968;2024-02-15T21:02:01;2.60;;;0.90;;
15383;SDS011;7790;53.022;12.968;2024-02-15T21:06:02;3.43;;;0.87;;
15383;SDS011;7790;53.022;12.968;2024-02-15T21:10:03;1.43;;;0.67;;
15383;SDS011;7790;53.022;12.968;2024-02-15T21:14:04;1.77;;;0.80;;
15383;SDS011;7790;53.022;12.968;2024-02-15T21:18:05;1.43;;;0.70;;
15383;SDS011;7790;53.022;12.968;2024-02-15T21:22:06;0.93;;;0.60;;
15383;SDS011;7790;53.022;12.968;2024-02-15T21:26:07;1.37;;;0.60;;
15383;SDS011;7790;53.022;12.968;2024-02-15T21:30:09;0.97;;;0.60;;
15383;SDS011;7790;53.022;12.968;2024-02-15T21:34:10;0.67;;;0.63;;
15383;SDS011;7790;53.022;12.968;2024-02-15T21:38:11;0.70;;;0.70;;
15383;SDS011;7790;53.022;12.968;2024-02-15T21:42:12;0.80;;;0.40;;
15383;SDS011;7790;53.022;12.968;2024-02-15T21:46:13;0.83;;;0.73;;
15383;SDS011;7790;53.022;12.968;2024-02-15T21:50:15;0.50;;;0.50;;
15383;SDS011;7790;53.022;12.968;2024-02-15T21:54:16;1.87;;;0.70;;
15383;SDS011;7790;53.022;12.968;2024-02-15T21:58:17;0.93;;;0.53;;
15383;SDS011;7790;53.022;12.968;2024-02-15T22:02:17;1.00;;;0.70;;
15383;SDS011;7790;53.022;12.968;2024-02-15T22:06:19;1.73;;;0.80;;
15383;SDS011;7790;53.022;12.968;2024-02-15T22:10:20;0.97;;;0.60;;
15383;SDS011;7790;53.022;12.968;2024-02-15T22:14:20;0.60;;;0.60;;
15383;SDS011;7790;53.022;12.968;2024-02-15T22:18:21;1.13;;;0.60;;
15383;SDS011;7790;53.022;12.968;2024-02-15T22:22:23;0.50;;;0.50;;
15383;SDS011;7790;53.022;12.968;2024-02-15T22:26:24;0.83;;;0.83;;
15383;SDS011;7790;53.022;12.968;2024-02-15T22:30:25;0.67;;;0.67;;
15383;SDS011;7790;53.022;12.968;2024-02-15T22:34:27;0.60;;;0.60;;
15383;SDS011;7790;53.022;12.968;2024-02-15T22:38:28;0.60;;;0.60;;
15383;SDS011;7790;53.022;12.968;2024-02-15T22:42:30;0.97;;;0.77;;
15383;SDS011;7790;53.022;12.968;2024-02-15T22:46:31;1.10;;;0.70;;
15383;SDS011;7790;53.022;12.968;2024-02-15T22:50:32;0.70;;;0.70;;
15383;SDS011;7790;53.022;12.968;2024-02-15T22:54:32;0.60;;;0.60;;
15383;SDS011;7790;53.022;12.968;2024-02-15T22:58:46;1.00;;;0.90;;
15383;SDS011;7790;53.022;12.968;2024-02-15T23:02:47;0.60;;;0.60;;
15383;SDS011;7790;53.022;12.968;2024-02-15T23:06:48;0.50;;;0.50;;
15383;SDS011;7790;53.022;12.968;2024-02-15T23:10:48;0.63;;;0.50;;
15383;SDS011;7790;53.022;12.968;2024-02-15T23:14:49;0.40;;;0.40;;
15383;SDS011;7790;53.022;12.968;2024-02-15T23:18:50;0.60;;;0.50;;
15383;SDS011;7790;53.022;12.968;2024-02-15T23:22:51;0.50;;;0.50;;
15383;SDS011;7790;53.022;12.968;2024-02-15T23:26:52;0.57;;;0.57;;
15383;SDS011;7790;53.022;12.968;2024-02-15T23:30:54;0.73;;;0.73;;
15383;SDS011;7790;53.022;12.968;2024-02-15T23:34:55;0.70;;;0.70;;
15383;SDS011;7790;53.022;12.968;2024-02-15T23:38:56;1.13;;;0.63;;
15383;SDS011;7790;53.022;12.968;2024-02-15T23:43:15;0.50;;;0.50;;
15383;SDS011;7790;53.022;12.968;2024-02-15T23:47:16;0.40;;;0.40;;
15383;SDS011;7790;53.022;12.968;2024-02-15T23:51:17;0.50;;;0.50;;
15383;SDS011;7790;53.022;12.968;2024-02-15T23:55:18;0.63;;;0.60;;
15383;SDS011;7790;53.022;12.968;2024-02-15T23:59:19;0.60;;;0.60;;
